sensor_id;sensor_type;location;lat;lon;timestamp;P1;durP1;ratioP1;P2;durP2;ratioP2
13475;SDS011;6810;63.824;20.288;2022-11-12T00:00:51;2.50;;;1.23;;
13475;SDS011;6810;63.824;20.288;2022-11-12T00:03:58;2.27;;;1.47;;
13475;SDS011;6810;63.824;20.288;2022-11-12T00:07:03;4.53;;;1.43;;
13475;SDS011;6810;63.824;20.288;2022-11-12T00:10:09;3.70;;;1.13;;
13475;SDS011;6810;63.824;20.288;2022-11-12T00:13:14;1.73;;;1.10;;
13475;SDS011;6810;63.824;20.288;2022-11-12T00:16:20;1.40;;;1.00;;
13475;SDS011;6810;63.824;20.288;2022-11-12T00:19:25;2.80;;;1.20;;
13475;SDS011;6810;63.824;20.288;2022-11-12T00:22:31;2.97;;;1.20;;
13475;SDS011;6810;63.824;20.288;2022-11-12T00:25:36;3.10;;;1.30;;
13475;SDS011;6810;63.824;20.288;2022-11-12T00:28:42;3.17;;;1.30;;
13475;SDS011;6810;63.824;20.288;2022-11-12T00:31:48;2.27;;;1.03;;
13475;SDS011;6810;63.824;20.288;2022-11-12T00:34:53;2.67;;;1.30;;
13475;SDS011;6810;63.824;20.288;2022-11-12T00:37:59;3.70;;;1.70;;
13475;SDS011;6810;63.824;20.288;2022-11-12T00:41:04;2.10;;;1.20;;
13475;SDS011;6810;63.824;20.288;2022-11-12T00:44:10;3.23;;;1.37;;
13475;SDS011;6810;63.824;20.288;2022-11-12T00:47:15;2.93;;;1.40;;
13475;SDS011;6810;63.824;20.288;2022-11-12T00:50:21;2.20;;;1.27;;
13475;SDS011;6810;63.824;20.288;2022-11-12T00:53:26;3.03;;;1.30;;
13475;SDS011;6810;63.824;20.288;2022-11-12T00:56:31;2.10;;;1.30;;
13475;SDS011;6810;63.824;20.288;2022-11-12T00:59:39;2.53;;;1.60;;
13475;SDS011;6810;63.824;20.288;2022-11-12T01:02:45;1.60;;;1.00;;
13475;SDS011;6810;63.824;20.288;2022-11-12T01:05:50;2.40;;;1.10;;
13475;SDS011;6810;63.824;20.288;2022-11-12T01:08:56;2.50;;;1.30;;
13475;SDS011;6810;63.824;20.288;2022-11-12T01:12:01;2.40;;;1.03;;
13475;SDS011;6810;63.824;20.288;2022-11-12T01:15:07;2.47;;;1.40;;
13475;SDS011;6810;63.824;20.288;2022-11-12T01:18:13;2.13;;;1.03;;
13475;SDS011;6810;63.824;20.288;2022-11-12T01:21:18;3.47;;;1.20;;
13475;SDS011;6810;63.824;20.288;2022-11-12T01:24:24;2.67;;;1.40;;
13475;SDS011;6810;63.824;20.288;2022-11-12T01:27:29;3.17;;;1.43;;
13475;SDS011;6810;63.824;20.288;2022-11-12T01:30:34;2.23;;;1.30;;
13475;SDS011;6810;63.824;20.288;2022-11-12T01:33:40;3.07;;;1.10;;
13475;SDS011;6810;63.824;20.288;2022-11-12T01:36:47;3.67;;;1.20;;
13475;SDS011;6810;63.824;20.288;2022-11-12T01:39:52;2.10;;;0.93;;
13475;SDS011;6810;63.824;20.288;2022-11-12T01:42:58;4.10;;;0.97;;
13475;SDS011;6810;63.824;20.288;2022-11-12T01:46:04;2.63;;;0.90;;
13475;SDS011;6810;63.824;20.288;2022-11-12T01:49:19;2.20;;;0.73;;
13475;SDS011;6810;63.824;20.288;2022-11-12T01:52:50;2.60;;;0.57;;
13475;SDS011;6810;63.824;20.288;2022-11-12T01:56:00;0.90;;;0.30;;
13475;SDS011;6810;63.824;20.288;2022-11-12T01:59:13;2.10;;;0.47;;
13475;SDS011;6810;63.824;20.288;2022-11-12T02:02:24;2.23;;;0.37;;
13475;SDS011;6810;63.824;20.288;2022-11-12T02:05:30;1.10;;;0.30;;
13475;SDS011;6810;63.824;20.288;2022-11-12T02:08:36;1.17;;;0.23;;
13475;SDS011;6810;63.824;20.288;2022-11-12T02:11:43;0.53;;;0.20;;
13475;SDS011;6810;63.824;20.288;2022-11-12T02:14:48;1.77;;;0.13;;
13475;SDS011;6810;63.824;20.288;2022-11-12T02:17:54;0.47;;;0.10;;
13475;SDS011;6810;63.824;20.288;2022-11-12T02:21:02;1.23;;;0.27;;
13475;SDS011;6810;63.824;20.288;2022-11-12T02:27:16;0.50;;;0.20;;
13475;SDS011;6810;63.824;20.288;2022-11-12T02:30:45;1.33;;;0.20;;
13475;SDS011;6810;63.824;20.288;2022-11-12T02:33:52;2.43;;;0.30;;
13475;SDS011;6810;63.824;20.288;2022-11-12T02:36:57;1.03;;;0.20;;
13475;SDS011;6810;63.824;20.288;2022-11-12T02:40:03;0.37;;;0.20;;
13475;SDS011;6810;63.824;20.288;2022-11-12T02:43:09;0.17;;;0.10;;
13475;SDS011;6810;63.824;20.288;2022-11-12T02:46:14;0.30;;;0.10;;
13475;SDS011;6810;63.824;20.288;2022-11-12T02:49:20;0.70;;;0.10;;
13475;SDS011;6810;63.824;20.288;2022-11-12T02:52:26;0.10;;;0.10;;
13475;SDS011;6810;63.824;20.288;2022-11-12T02:55:31;0.07;;;0.07;;
13475;SDS011;6810;63.824;20.288;2022-11-12T02:58:37;0.00;;;0.00;;
13475;SDS011;6810;63.824;20.288;2022-11-12T03:01:43;0.10;;;0.00;;
13475;SDS011;6810;63.824;20.288;2022-11-12T03:04:48;0.37;;;0.10;;
13475;SDS011;6810;63.824;20.288;2022-11-12T03:07:57;0.03;;;0.00;;
13475;SDS011;6810;63.824;20.288;2022-11-12T03:11:11;0.10;;;0.07;;
13475;SDS011;6810;63.824;20.288;2022-11-12T03:14:18;0.00;;;0.00;;
13475;SDS011;6810;63.824;20.288;2022-11-12T03:17:24;0.10;;;0.10;;
13475;SDS011;6810;63.824;20.288;2022-11-12T03:20:29;0.00;;;0.00;;
13475;SDS011;6810;63.824;20.288;2022-11-12T03:23:35;0.10;;;0.00;;
13475;SDS011;6810;63.824;20.288;2022-11-12T03:26:40;0.10;;;0.10;;
13475;SDS011;6810;63.824;20.288;2022-11-12T03:29:46;0.00;;;0.00;;
13475;SDS011;6810;63.824;20.288;2022-11-12T03:32:51;0.00;;;0.00;;
13475;SDS011;6810;63.824;20.288;2022-11-12T03:35:57;0.00;;;0.00;;
13475;SDS011;6810;63.824;20.288;2022-11-12T03:39:03;0.50;;;0.10;;
13475;SDS011;6810;63.824;20.288;2022-11-12T03:42:08;0.00;;;0.00;;
13475;SDS011;6810;63.824;20.288;2022-11-12T03:45:14;0.00;;;0.00;;
13475;SDS011;6810;63.824;20.288;2022-11-12T03:48:20;0.00;;;0.00;;
13475;SDS011;6810;63.824;20.288;2022-11-12T03:51:26;0.00;;;0.00;;
13475;SDS011;6810;63.824;20.288;2022-11-12T03:54:31;0.00;;;0.00;;
13475;SDS011;6810;63.824;20.288;2022-11-12T03:57:37;0.30;;;0.00;;
13475;SDS011;6810;63.824;20.288;2022-11-12T04:00:42;0.00;;;0.00;;
13475;SDS011;6810;63.824;20.288;2022-11-12T04:03:47;0.00;;;0.00;;
13475;SDS011;6810;63.824;20.288;2022-11-12T04:06:53;0.20;;;0.00;;
13475;SDS011;6810;63.824;20.288;2022-11-12T04:09:57;0.23;;;0.00;;
13475;SDS011;6810;63.824;20.288;2022-11-12T04:13:02;0.00;;;0.00;;
13475;SDS011;6810;63.824;20.288;2022-11-12T04:19:11;0.00;;;0.00;;
13475;SDS011;6810;63.824;20.288;2022-11-12T04:22:15;0.10;;;0.00;;
13475;SDS011;6810;63.824;20.288;2022-11-12T04:25:21;0.00;;;0.00;;
13475;SDS011;6810;63.824;20.288;2022-11-12T04:28:25;0.00;;;0.00;;
13475;SDS011;6810;63.824;20.288;2022-11-12T04:31:30;0.00;;;0.00;;
13475;SDS011;6810;63.824;20.288;2022-11-12T04:34:36;0.03;;;0.00;;
13475;SDS011;6810;63.824;20.288;2022-11-12T04:37:42;0.63;;;0.10;;
13475;SDS011;6810;63.824;20.288;2022-11-12T04:40:50;0.00;;;0.00;;
13475;SDS011;6810;63.824;20.288;2022-11-12T04:43:54;0.03;;;0.00;;
13475;SDS011;6810;63.824;20.288;2022-11-12T04:46:58;0.23;;;0.00;;
13475;SDS011;6810;63.824;20.288;2022-11-12T04:50:05;0.00;;;0.00;;
13475;SDS011;6810;63.824;20.288;2022-11-12T04:53:15;0.60;;;0.00;;
13475;SDS011;6810;63.824;20.288;2022-11-12T04:56:21;0.10;;;0.00;;
13475;SDS011;6810;63.824;20.288;2022-11-12T04:59:26;0.40;;;0.00;;
13475;SDS011;6810;63.824;20.288;2022-11-12T05:02:31;0.07;;;0.00;;
13475;SDS011;6810;63.824;20.288;2022-11-12T05:05:37;0.47;;;0.00;;
13475;SDS011;6810;63.824;20.288;2022-11-12T05:08:43;0.27;;;0.00;;
13475;SDS011;6810;63.824;20.288;2022-11-12T05:11:48;0.03;;;0.00;;
13475;SDS011;6810;63.824;20.288;2022-11-12T05:14:54;0.00;;;0.00;;
13475;SDS011;6810;63.824;20.288;2022-11-12T05:17:59;0.00;;;0.00;;
13475;SDS011;6810;63.824;20.288;2022-11-12T05:21:05;0.30;;;0.00;;
13475;SDS011;6810;63.824;20.288;2022-11-12T05:24:10;0.00;;;0.00;;
13475;SDS011;6810;63.824;20.288;2022-11-12T05:27:26;0.00;;;0.00;;
13475;SDS011;6810;63.824;20.288;2022-11-12T05:30:32;0.00;;;0.00;;
13475;SDS011;6810;63.824;20.288;2022-11-12T05:33:38;0.00;;;0.00;;
13475;SDS011;6810;63.824;20.288;2022-11-12T05:36:43;0.83;;;0.00;;
13475;SDS011;6810;63.824;20.288;2022-11-12T05:39:49;0.10;;;0.00;;
13475;SDS011;6810;63.824;20.288;2022-11-12T05:42:55;0.37;;;0.00;;
13475;SDS011;6810;63.824;20.288;2022-11-12T05:46:01;0.10;;;0.00;;
13475;SDS011;6810;63.824;20.288;2022-11-12T05:49:06;0.00;;;0.00;;
13475;SDS011;6810;63.824;20.288;2022-11-12T05:52:12;1.50;;;0.10;;
13475;SDS011;6810;63.824;20.288;2022-11-12T05:55:17;0.10;;;0.10;;
13475;SDS011;6810;63.824;20.288;2022-11-12T05:58:22;0.20;;;0.00;;
13475;SDS011;6810;63.824;20.288;2022-11-12T06:01:28;0.07;;;0.00;;
13475;SDS011;6810;63.824;20.288;2022-11-12T06:04:34;0.00;;;0.00;;
13475;SDS011;6810;63.824;20.288;2022-11-12T06:07:40;0.03;;;0.00;;
13475;SDS011;6810;63.824;20.288;2022-11-12T06:10:48;0.00;;;0.00;;
13475;SDS011;6810;63.824;20.288;2022-11-12T06:13:55;0.10;;;0.00;;
13475;SDS011;6810;63.824;20.288;2022-11-12T06:17:01;0.00;;;0.00;;
13475;SDS011;6810;63.824;20.288;2022-11-12T06:20:07;0.10;;;0.00;;
13475;SDS011;6810;63.824;20.288;2022-11-12T06:23:13;0.00;;;0.00;;
13475;SDS011;6810;63.824;20.288;2022-11-12T06:26:19;0.23;;;0.00;;
13475;SDS011;6810;63.824;20.288;2022-11-12T06:29:24;0.10;;;0.00;;
13475;SDS011;6810;63.824;20.288;2022-11-12T06:32:30;0.33;;;0.00;;
13475;SDS011;6810;63.824;20.288;2022-11-12T06:35:35;0.00;;;0.00;;
13475;SDS011;6810;63.824;20.288;2022-11-12T06:38:41;2.13;;;0.10;;
13475;SDS011;6810;63.824;20.288;2022-11-12T06:41:47;1.60;;;0.10;;
13475;SDS011;6810;63.824;20.288;2022-11-12T06:44:53;0.00;;;0.00;;
13475;SDS011;6810;63.824;20.288;2022-11-12T06:47:58;0.10;;;0.00;;
13475;SDS011;6810;63.824;20.288;2022-11-12T06:51:04;0.30;;;0.10;;
13475;SDS011;6810;63.824;20.288;2022-11-12T06:54:14;0.73;;;0.10;;
13475;SDS011;6810;63.824;20.288;2022-11-12T06:57:20;0.33;;;0.13;;
13475;SDS011;6810;63.824;20.288;2022-11-12T07:00:25;0.60;;;0.13;;
13475;SDS011;6810;63.824;20.288;2022-11-12T07:03:31;0.10;;;0.03;;
13475;SDS011;6810;63.824;20.288;2022-11-12T07:06:36;1.83;;;0.10;;
13475;SDS011;6810;63.824;20.288;2022-11-12T07:09:42;0.00;;;0.00;;
13475;SDS011;6810;63.824;20.288;2022-11-12T07:12:47;1.03;;;0.10;;
13475;SDS011;6810;63.824;20.288;2022-11-12T07:15:55;0.60;;;0.10;;
13475;SDS011;6810;63.824;20.288;2022-11-12T07:19:01;0.53;;;0.10;;
13475;SDS011;6810;63.824;20.288;2022-11-12T07:22:07;1.03;;;0.10;;
13475;SDS011;6810;63.824;20.288;2022-11-12T07:25:12;1.13;;;0.20;;
13475;SDS011;6810;63.824;20.288;2022-11-12T07:28:18;2.30;;;0.10;;
13475;SDS011;6810;63.824;20.288;2022-11-12T07:31:23;0.13;;;0.10;;
13475;SDS011;6810;63.824;20.288;2022-11-12T07:34:28;0.50;;;0.17;;
13475;SDS011;6810;63.824;20.288;2022-11-12T07:37:34;0.60;;;0.00;;
13475;SDS011;6810;63.824;20.288;2022-11-12T07:40:43;0.63;;;0.17;;
13475;SDS011;6810;63.824;20.288;2022-11-12T07:43:49;0.67;;;0.10;;
13475;SDS011;6810;63.824;20.288;2022-11-12T07:46:56;1.93;;;0.17;;
13475;SDS011;6810;63.824;20.288;2022-11-12T07:50:01;1.07;;;0.10;;
13475;SDS011;6810;63.824;20.288;2022-11-12T07:53:07;0.30;;;0.17;;
13475;SDS011;6810;63.824;20.288;2022-11-12T07:56:14;0.70;;;0.10;;
13475;SDS011;6810;63.824;20.288;2022-11-12T07:59:21;0.60;;;0.00;;
13475;SDS011;6810;63.824;20.288;2022-11-12T08:02:30;0.33;;;0.20;;
13475;SDS011;6810;63.824;20.288;2022-11-12T08:05:36;0.10;;;0.00;;
13475;SDS011;6810;63.824;20.288;2022-11-12T08:08:41;2.77;;;0.20;;
13475;SDS011;6810;63.824;20.288;2022-11-12T08:11:47;0.67;;;0.10;;
13475;SDS011;6810;63.824;20.288;2022-11-12T08:14:53;1.60;;;0.20;;
13475;SDS011;6810;63.824;20.288;2022-11-12T08:17:58;0.50;;;0.20;;
13475;SDS011;6810;63.824;20.288;2022-11-12T08:21:04;4.33;;;0.30;;
13475;SDS011;6810;63.824;20.288;2022-11-12T08:24:11;0.10;;;0.10;;
13475;SDS011;6810;63.824;20.288;2022-11-12T08:27:17;1.03;;;0.20;;
13475;SDS011;6810;63.824;20.288;2022-11-12T08:30:22;0.57;;;0.10;;
13475;SDS011;6810;63.824;20.288;2022-11-12T08:33:28;0.87;;;0.10;;
13475;SDS011;6810;63.824;20.288;2022-11-12T08:36:34;0.20;;;0.20;;
13475;SDS011;6810;63.824;20.288;2022-11-12T08:39:40;0.83;;;0.10;;
13475;SDS011;6810;63.824;20.288;2022-11-12T08:42:45;1.27;;;0.10;;
13475;SDS011;6810;63.824;20.288;2022-11-12T08:45:50;0.77;;;0.13;;
13475;SDS011;6810;63.824;20.288;2022-11-12T08:48:55;1.80;;;0.40;;
13475;SDS011;6810;63.824;20.288;2022-11-12T08:52:01;0.63;;;0.20;;
13475;SDS011;6810;63.824;20.288;2022-11-12T08:55:06;1.43;;;0.50;;
13475;SDS011;6810;63.824;20.288;2022-11-12T08:58:12;0.20;;;0.10;;
13475;SDS011;6810;63.824;20.288;2022-11-12T09:01:18;1.20;;;0.30;;
13475;SDS011;6810;63.824;20.288;2022-11-12T09:04:23;1.67;;;0.20;;
13475;SDS011;6810;63.824;20.288;2022-11-12T09:07:30;0.93;;;0.10;;
13475;SDS011;6810;63.824;20.288;2022-11-12T09:10:35;0.20;;;0.07;;
13475;SDS011;6810;63.824;20.288;2022-11-12T09:13:22;1.63;;;0.30;;
13475;SDS011;6810;63.824;20.288;2022-11-12T09:16:08;0.20;;;0.10;;
13475;SDS011;6810;63.824;20.288;2022-11-12T09:18:54;1.47;;;0.23;;
13475;SDS011;6810;63.824;20.288;2022-11-12T09:21:40;0.20;;;0.10;;
13475;SDS011;6810;63.824;20.288;2022-11-12T09:24:26;0.80;;;0.17;;
13475;SDS011;6810;63.824;20.288;2022-11-12T09:27:11;1.97;;;0.60;;
13475;SDS011;6810;63.824;20.288;2022-11-12T09:29:57;0.50;;;0.10;;
13475;SDS011;6810;63.824;20.288;2022-11-12T09:33:03;0.10;;;0.10;;
13475;SDS011;6810;63.824;20.288;2022-11-12T09:36:09;0.43;;;0.20;;
13475;SDS011;6810;63.824;20.288;2022-11-12T09:39:02;0.50;;;0.50;;
13475;SDS011;6810;63.824;20.288;2022-11-12T09:42:08;0.20;;;0.10;;
13475;SDS011;6810;63.824;20.288;2022-11-12T09:45:26;0.97;;;0.20;;
13475;SDS011;6810;63.824;20.288;2022-11-12T09:48:57;1.23;;;0.40;;
13475;SDS011;6810;63.824;20.288;2022-11-12T09:51:51;0.30;;;0.10;;
13475;SDS011;6810;63.824;20.288;2022-11-12T09:54:40;0.77;;;0.23;;
13475;SDS011;6810;63.824;20.288;2022-11-12T09:57:26;1.43;;;0.20;;
13475;SDS011;6810;63.824;20.288;2022-11-12T10:00:15;1.30;;;0.13;;
13475;SDS011;6810;63.824;20.288;2022-11-12T10:03:06;0.67;;;0.30;;
13475;SDS011;6810;63.824;20.288;2022-11-12T10:06:09;1.17;;;0.30;;
13475;SDS011;6810;63.824;20.288;2022-11-12T10:09:18;0.90;;;0.20;;
13475;SDS011;6810;63.824;20.288;2022-11-12T10:25:25;1.57;;;0.20;;
13475;SDS011;6810;63.824;20.288;2022-11-12T10:31:16;0.93;;;0.20;;
13475;SDS011;6810;63.824;20.288;2022-11-12T10:36:59;0.83;;;0.20;;
13475;SDS011;6810;63.824;20.288;2022-11-12T10:39:48;0.83;;;0.20;;
13475;SDS011;6810;63.824;20.288;2022-11-12T10:42:34;0.20;;;0.10;;
13475;SDS011;6810;63.824;20.288;2022-11-12T10:45:38;0.40;;;0.10;;
13475;SDS011;6810;63.824;20.288;2022-11-12T10:48:25;1.13;;;0.20;;
13475;SDS011;6810;63.824;20.288;2022-11-12T10:51:23;0.70;;;0.30;;
13475;SDS011;6810;63.824;20.288;2022-11-12T10:57:24;0.37;;;0.10;;
13475;SDS011;6810;63.824;20.288;2022-11-12T11:02:57;0.50;;;0.30;;
13475;SDS011;6810;63.824;20.288;2022-11-12T11:06:26;1.17;;;0.10;;
13475;SDS011;6810;63.824;20.288;2022-11-12T11:12:27;1.10;;;0.10;;
13475;SDS011;6810;63.824;20.288;2022-11-12T11:17:59;1.90;;;0.43;;
13475;SDS011;6810;63.824;20.288;2022-11-12T11:20:46;0.97;;;0.20;;
13475;SDS011;6810;63.824;20.288;2022-11-12T11:23:46;0.20;;;0.13;;
13475;SDS011;6810;63.824;20.288;2022-11-12T11:29:51;0.20;;;0.20;;
13475;SDS011;6810;63.824;20.288;2022-11-12T11:36:15;0.47;;;0.13;;
13475;SDS011;6810;63.824;20.288;2022-11-12T11:50:14;1.03;;;0.20;;
13475;SDS011;6810;63.824;20.288;2022-11-12T11:53:25;2.23;;;0.20;;
13475;SDS011;6810;63.824;20.288;2022-11-12T11:56:55;1.13;;;0.10;;
13475;SDS011;6810;63.824;20.288;2022-11-12T12:03:25;0.20;;;0.10;;
13475;SDS011;6810;63.824;20.288;2022-11-12T12:06:37;1.43;;;0.10;;
13475;SDS011;6810;63.824;20.288;2022-11-12T12:10:26;2.30;;;0.20;;
13475;SDS011;6810;63.824;20.288;2022-11-12T12:14:00;1.87;;;0.20;;
13475;SDS011;6810;63.824;20.288;2022-11-12T12:20:42;0.10;;;0.10;;
13475;SDS011;6810;63.824;20.288;2022-11-12T12:23:56;1.00;;;0.30;;
13475;SDS011;6810;63.824;20.288;2022-11-12T12:27:10;1.90;;;0.40;;
13475;SDS011;6810;63.824;20.288;2022-11-12T12:30:20;1.27;;;0.30;;
13475;SDS011;6810;63.824;20.288;2022-11-12T12:36:35;0.50;;;0.20;;
13475;SDS011;6810;63.824;20.288;2022-11-12T12:40:04;0.90;;;0.33;;
13475;SDS011;6810;63.824;20.288;2022-11-12T12:43:34;1.90;;;0.23;;
13475;SDS011;6810;63.824;20.288;2022-11-12T12:46:44;1.23;;;0.47;;
13475;SDS011;6810;63.824;20.288;2022-11-12T12:49:53;2.10;;;0.47;;
13475;SDS011;6810;63.824;20.288;2022-11-12T12:53:01;1.50;;;0.30;;
13475;SDS011;6810;63.824;20.288;2022-11-12T12:56:43;2.13;;;0.37;;
13475;SDS011;6810;63.824;20.288;2022-11-12T12:59:59;0.77;;;0.33;;
13475;SDS011;6810;63.824;20.288;2022-11-12T13:10:29;1.07;;;0.37;;
13475;SDS011;6810;63.824;20.288;2022-11-12T13:13:39;2.43;;;0.43;;
13475;SDS011;6810;63.824;20.288;2022-11-12T13:23:06;2.30;;;0.40;;
13475;SDS011;6810;63.824;20.288;2022-11-12T13:29:56;1.10;;;0.30;;
13475;SDS011;6810;63.824;20.288;2022-11-12T13:33:01;1.70;;;0.50;;
13475;SDS011;6810;63.824;20.288;2022-11-12T13:36:22;2.03;;;0.67;;
13475;SDS011;6810;63.824;20.288;2022-11-12T13:39:36;2.07;;;0.40;;
13475;SDS011;6810;63.824;20.288;2022-11-12T13:42:41;1.77;;;0.20;;
13475;SDS011;6810;63.824;20.288;2022-11-12T13:45:54;0.67;;;0.27;;
13475;SDS011;6810;63.824;20.288;2022-11-12T13:49:09;1.77;;;0.30;;
13475;SDS011;6810;63.824;20.288;2022-11-12T13:52:17;0.77;;;0.40;;
13475;SDS011;6810;63.824;20.288;2022-11-12T13:55:24;1.30;;;0.40;;
13475;SDS011;6810;63.824;20.288;2022-11-12T13:58:33;1.30;;;0.60;;
13475;SDS011;6810;63.824;20.288;2022-11-12T14:01:39;0.87;;;0.30;;
13475;SDS011;6810;63.824;20.288;2022-11-12T14:04:46;1.23;;;0.30;;
13475;SDS011;6810;63.824;20.288;2022-11-12T14:20:54;0.20;;;0.10;;
13475;SDS011;6810;63.824;20.288;2022-11-12T14:24:00;0.30;;;0.20;;
13475;SDS011;6810;63.824;20.288;2022-11-12T14:30:30;1.73;;;0.30;;
13475;SDS011;6810;63.824;20.288;2022-11-12T14:33:35;0.17;;;0.17;;
13475;SDS011;6810;63.824;20.288;2022-11-12T14:36:41;0.80;;;0.20;;
13475;SDS011;6810;63.824;20.288;2022-11-12T14:39:46;1.07;;;0.10;;
13475;SDS011;6810;63.824;20.288;2022-11-12T14:42:52;1.20;;;0.37;;
13475;SDS011;6810;63.824;20.288;2022-11-12T14:46:04;2.23;;;0.40;;
13475;SDS011;6810;63.824;20.288;2022-11-12T14:49:14;0.00;;;0.00;;
13475;SDS011;6810;63.824;20.288;2022-11-12T14:52:30;0.43;;;0.40;;
13475;SDS011;6810;63.824;20.288;2022-11-12T14:55:39;0.73;;;0.10;;
13475;SDS011;6810;63.824;20.288;2022-11-12T14:58:28;0.47;;;0.10;;
13475;SDS011;6810;63.824;20.288;2022-11-12T15:01:36;0.63;;;0.20;;
13475;SDS011;6810;63.824;20.288;2022-11-12T15:05:11;1.03;;;0.27;;
13475;SDS011;6810;63.824;20.288;2022-11-12T15:08:34;1.03;;;0.20;;
13475;SDS011;6810;63.824;20.288;2022-11-12T15:11:43;0.10;;;0.10;;
13475;SDS011;6810;63.824;20.288;2022-11-12T15:14:50;0.53;;;0.10;;
13475;SDS011;6810;63.824;20.288;2022-11-12T15:17:58;0.13;;;0.00;;
13475;SDS011;6810;63.824;20.288;2022-11-12T15:21:23;0.40;;;0.10;;
13475;SDS011;6810;63.824;20.288;2022-11-12T15:24:32;0.10;;;0.00;;
13475;SDS011;6810;63.824;20.288;2022-11-12T15:27:40;0.00;;;0.00;;
13475;SDS011;6810;63.824;20.288;2022-11-12T15:31:05;0.30;;;0.10;;
13475;SDS011;6810;63.824;20.288;2022-11-12T15:37:29;1.03;;;0.10;;
13475;SDS011;6810;63.824;20.288;2022-11-12T15:40:45;0.20;;;0.10;;
13475;SDS011;6810;63.824;20.288;2022-11-12T15:43:51;0.00;;;0.00;;
13475;SDS011;6810;63.824;20.288;2022-11-12T15:46:56;0.30;;;0.10;;
13475;SDS011;6810;63.824;20.288;2022-11-12T15:50:07;0.20;;;0.10;;
13475;SDS011;6810;63.824;20.288;2022-11-12T15:53:19;0.50;;;0.10;;
13475;SDS011;6810;63.824;20.288;2022-11-12T15:56:25;0.00;;;0.00;;
13475;SDS011;6810;63.824;20.288;2022-11-12T15:59:30;0.00;;;0.00;;
13475;SDS011;6810;63.824;20.288;2022-11-12T16:02:36;0.10;;;0.10;;
13475;SDS011;6810;63.824;20.288;2022-11-12T16:05:42;4.40;;;0.10;;
13475;SDS011;6810;63.824;20.288;2022-11-12T16:08:53;0.10;;;0.00;;
13475;SDS011;6810;63.824;20.288;2022-11-12T16:11:59;0.30;;;0.10;;
13475;SDS011;6810;63.824;20.288;2022-11-12T16:15:24;0.00;;;0.00;;
13475;SDS011;6810;63.824;20.288;2022-11-12T16:18:30;0.00;;;0.00;;
13475;SDS011;6810;63.824;20.288;2022-11-12T16:21:35;0.30;;;0.07;;
13475;SDS011;6810;63.824;20.288;2022-11-12T16:24:41;0.50;;;0.10;;
13475;SDS011;6810;63.824;20.288;2022-11-12T16:27:46;0.27;;;0.20;;
13475;SDS011;6810;63.824;20.288;2022-11-12T16:30:52;0.10;;;0.10;;
13475;SDS011;6810;63.824;20.288;2022-11-12T16:33:58;0.20;;;0.10;;
13475;SDS011;6810;63.824;20.288;2022-11-12T16:37:03;0.83;;;0.20;;
13475;SDS011;6810;63.824;20.288;2022-11-12T16:40:42;0.50;;;0.10;;
13475;SDS011;6810;63.824;20.288;2022-11-12T16:43:40;1.43;;;0.30;;
13475;SDS011;6810;63.824;20.288;2022-11-12T16:46:45;0.73;;;0.20;;
13475;SDS011;6810;63.824;20.288;2022-11-12T16:49:51;0.33;;;0.10;;
13475;SDS011;6810;63.824;20.288;2022-11-12T16:52:57;0.87;;;0.10;;
13475;SDS011;6810;63.824;20.288;2022-11-12T16:56:02;0.73;;;0.20;;
13475;SDS011;6810;63.824;20.288;2022-11-12T16:59:09;0.30;;;0.20;;
13475;SDS011;6810;63.824;20.288;2022-11-12T17:02:16;0.87;;;0.10;;
13475;SDS011;6810;63.824;20.288;2022-11-12T17:05:29;0.10;;;0.10;;
13475;SDS011;6810;63.824;20.288;2022-11-12T17:08:34;0.10;;;0.10;;
13475;SDS011;6810;63.824;20.288;2022-11-12T17:11:40;0.53;;;0.13;;
13475;SDS011;6810;63.824;20.288;2022-11-12T17:14:45;0.30;;;0.10;;
13475;SDS011;6810;63.824;20.288;2022-11-12T17:17:54;1.40;;;0.20;;
13475;SDS011;6810;63.824;20.288;2022-11-12T17:21:12;0.87;;;0.20;;
13475;SDS011;6810;63.824;20.288;2022-11-12T17:24:19;1.17;;;0.40;;
13475;SDS011;6810;63.824;20.288;2022-11-12T17:27:25;1.37;;;0.30;;
13475;SDS011;6810;63.824;20.288;2022-11-12T17:30:31;0.83;;;0.10;;
13475;SDS011;6810;63.824;20.288;2022-11-12T17:33:40;0.30;;;0.30;;
13475;SDS011;6810;63.824;20.288;2022-11-12T17:36:50;0.73;;;0.30;;
13475;SDS011;6810;63.824;20.288;2022-11-12T17:39:55;0.37;;;0.20;;
13475;SDS011;6810;63.824;20.288;2022-11-12T17:43:00;4.90;;;0.30;;
13475;SDS011;6810;63.824;20.288;2022-11-12T17:46:07;1.07;;;0.30;;
13475;SDS011;6810;63.824;20.288;2022-11-12T17:49:13;1.00;;;0.30;;
13475;SDS011;6810;63.824;20.288;2022-11-12T17:52:19;1.17;;;0.10;;
13475;SDS011;6810;63.824;20.288;2022-11-12T17:55:25;1.57;;;0.30;;
13475;SDS011;6810;63.824;20.288;2022-11-12T17:58:30;0.57;;;0.23;;
13475;SDS011;6810;63.824;20.288;2022-11-12T18:01:36;0.83;;;0.20;;
13475;SDS011;6810;63.824;20.288;2022-11-12T18:04:41;1.13;;;0.10;;
13475;SDS011;6810;63.824;20.288;2022-11-12T18:07:47;0.37;;;0.20;;
13475;SDS011;6810;63.824;20.288;2022-11-12T18:10:52;1.07;;;0.20;;
13475;SDS011;6810;63.824;20.288;2022-11-12T18:14:04;1.20;;;0.20;;
13475;SDS011;6810;63.824;20.288;2022-11-12T18:17:10;0.33;;;0.10;;
13475;SDS011;6810;63.824;20.288;2022-11-12T18:20:16;0.10;;;0.10;;
13475;SDS011;6810;63.824;20.288;2022-11-12T18:23:21;0.70;;;0.10;;
13475;SDS011;6810;63.824;20.288;2022-11-12T18:26:27;0.30;;;0.30;;
13475;SDS011;6810;63.824;20.288;2022-11-12T18:29:32;2.10;;;0.20;;
13475;SDS011;6810;63.824;20.288;2022-11-12T18:32:38;1.60;;;0.40;;
13475;SDS011;6810;63.824;20.288;2022-11-12T18:35:43;0.77;;;0.10;;
13475;SDS011;6810;63.824;20.288;2022-11-12T18:38:48;0.70;;;0.27;;
13475;SDS011;6810;63.824;20.288;2022-11-12T18:41:54;0.67;;;0.30;;
13475;SDS011;6810;63.824;20.288;2022-11-12T18:44:59;0.10;;;0.10;;
13475;SDS011;6810;63.824;20.288;2022-11-12T18:48:04;0.23;;;0.10;;
13475;SDS011;6810;63.824;20.288;2022-11-12T18:51:11;1.30;;;0.40;;
13475;SDS011;6810;63.824;20.288;2022-11-12T18:54:17;0.93;;;0.40;;
13475;SDS011;6810;63.824;20.288;2022-11-12T18:57:24;0.63;;;0.20;;
13475;SDS011;6810;63.824;20.288;2022-11-12T19:00:30;0.20;;;0.10;;
13475;SDS011;6810;63.824;20.288;2022-11-12T19:03:36;0.80;;;0.20;;
13475;SDS011;6810;63.824;20.288;2022-11-12T19:06:42;0.20;;;0.13;;
13475;SDS011;6810;63.824;20.288;2022-11-12T19:09:48;0.13;;;0.13;;
13475;SDS011;6810;63.824;20.288;2022-11-12T19:12:59;1.80;;;0.40;;
13475;SDS011;6810;63.824;20.288;2022-11-12T19:19:12;1.23;;;0.20;;
13475;SDS011;6810;63.824;20.288;2022-11-12T19:22:17;1.37;;;0.20;;
13475;SDS011;6810;63.824;20.288;2022-11-12T19:25:23;0.60;;;0.10;;
13475;SDS011;6810;63.824;20.288;2022-11-12T19:28:29;1.80;;;0.23;;
13475;SDS011;6810;63.824;20.288;2022-11-12T19:31:34;0.00;;;0.00;;
13475;SDS011;6810;63.824;20.288;2022-11-12T19:34:40;2.07;;;0.20;;
13475;SDS011;6810;63.824;20.288;2022-11-12T19:37:45;0.00;;;0.00;;
13475;SDS011;6810;63.824;20.288;2022-11-12T19:40:51;2.53;;;0.10;;
13475;SDS011;6810;63.824;20.288;2022-11-12T19:44:03;0.10;;;0.10;;
13475;SDS011;6810;63.824;20.288;2022-11-12T19:47:09;0.20;;;0.03;;
13475;SDS011;6810;63.824;20.288;2022-11-12T19:50:14;0.10;;;0.10;;
13475;SDS011;6810;63.824;20.288;2022-11-12T19:53:20;0.30;;;0.13;;
13475;SDS011;6810;63.824;20.288;2022-11-12T19:56:26;0.77;;;0.10;;
13475;SDS011;6810;63.824;20.288;2022-11-12T19:59:31;2.20;;;0.40;;
13475;SDS011;6810;63.824;20.288;2022-11-12T20:02:36;1.03;;;0.30;;
13475;SDS011;6810;63.824;20.288;2022-11-12T20:05:42;0.40;;;0.00;;
13475;SDS011;6810;63.824;20.288;2022-11-12T20:08:47;1.50;;;0.10;;
13475;SDS011;6810;63.824;20.288;2022-11-12T20:11:53;1.13;;;0.20;;
13475;SDS011;6810;63.824;20.288;2022-11-12T20:14:59;0.10;;;0.10;;
13475;SDS011;6810;63.824;20.288;2022-11-12T20:18:05;0.27;;;0.10;;
13475;SDS011;6810;63.824;20.288;2022-11-12T20:21:11;1.00;;;0.30;;
13475;SDS011;6810;63.824;20.288;2022-11-12T20:24:17;0.30;;;0.00;;
13475;SDS011;6810;63.824;20.288;2022-11-12T20:27:22;0.27;;;0.10;;